Time;durP1;ratioP1;P1;durP2;ratioP2;P2;SDS_P1;SDS_P2;PMS_P1;PMS_P2;Temp;Humidity;BMP_temperature;BMP_pressure;BME280_temperature;BME280_humidity;BME280_pressure;Samples;Min_cycle;Max_cycle;Signal;HPM_P1;HPM_P2
2021/03/16 00:00:14;;;;;;;5.55;4.47;;;20.00;55.10;;;;;;5065597;28;20317;-37
2021/03/16 00:02:41;;;;;;;5.38;4.13;;;20.00;55.20;;;;;;5050250;28;20053;-37
2021/03/16 00:05:07;;;;;;;5.13;4.18;;;20.00;55.10;;;;;;5059183;28;20037;-37
2021/03/16 00:07:33;;;;;;;6.13;4.70;;;20.00;55.10;;;;;;5065279;28;20032;-37
2021/03/16 00:10:00;;;;;;;5.32;4.38;;;20.00;55.20;;;;;;5065297;28;20060;-37
2021/03/16 00:12:26;;;;;;;4.90;3.63;;;20.00;55.00;;;;;;5065362;28;20141;-37
2021/03/16 00:14:53;;;;;;;5.00;4.20;;;20.00;55.00;;;;;;5065130;28;20021;-38
2021/03/16 00:17:20;;;;;;;4.38;3.97;;;19.90;55.00;;;;;;5064936;28;20037;-38
2021/03/16 00:19:46;;;;;;;4.80;4.28;;;19.90;54.90;;;;;;5047506;28;20022;-37
2021/03/16 00:22:13;;;;;;;4.60;3.92;;;19.90;54.90;;;;;;5065334;28;20776;-38
2021/03/16 00:24:39;;;;;;;5.07;4.20;;;19.90;55.10;;;;;;5064468;28;20029;-37
2021/03/16 00:27:05;;;;;;;4.65;4.15;;;19.90;55.00;;;;;;5064801;28;20067;-37
2021/03/16 00:29:32;;;;;;;5.93;4.38;;;19.90;54.90;;;;;;5065134;28;20063;-38
2021/03/16 00:31:58;;;;;;;4.95;4.45;;;19.90;54.80;;;;;;5064742;28;20092;-37
2021/03/16 00:34:24;;;;;;;4.38;3.97;;;19.90;54.80;;;;;;5064635;28;20075;-37
2021/03/16 00:36:50;;;;;;;4.93;4.03;;;19.90;54.80;;;;;;5037608;28;20040;-37
2021/03/16 00:39:16;;;;;;;4.47;3.95;;;19.90;54.90;;;;;;5045818;28;20053;-37
2021/03/16 00:41:42;;;;;;;5.38;4.45;;;19.90;54.80;;;;;;5044653;28;20040;-38
2021/03/16 00:44:08;;;;;;;5.00;4.50;;;19.90;54.90;;;;;;5044684;28;20037;-37
2021/03/16 00:46:35;;;;;;;4.88;4.25;;;19.90;54.80;;;;;;5044455;28;20033;-38
2021/03/16 00:49:02;;;;;;;5.32;3.90;;;19.90;54.80;;;;;;5026956;28;20052;-37
2021/03/16 00:51:28;;;;;;;5.85;4.45;;;19.90;54.90;;;;;;5044717;28;20038;-37
2021/03/16 00:53:55;;;;;;;6.00;4.13;;;19.90;55.00;;;;;;5044612;28;20052;-37
2021/03/16 00:56:21;;;;;;;4.70;4.30;;;19.90;55.00;;;;;;5055038;28;20025;-37
2021/03/16 00:58:47;;;;;;;4.80;4.00;;;19.80;54.90;;;;;;5026556;28;20053;-37
2021/03/16 01:01:13;;;;;;;6.13;4.10;;;19.90;55.00;;;;;;5026523;28;20021;-37
2021/03/16 01:03:40;;;;;;;4.70;4.20;;;19.90;54.90;;;;;;5044123;28;20037;-37
2021/03/16 01:06:06;;;;;;;5.03;4.28;;;19.80;54.90;;;;;;5044431;28;20056;-37
2021/03/16 01:08:32;;;;;;;5.60;4.20;;;19.80;54.90;;;;;;5044256;28;20085;-37
2021/03/16 01:10:59;;;;;;;4.65;4.18;;;19.80;54.80;;;;;;5043988;28;20517;-37
2021/03/16 01:13:25;;;;;;;5.10;4.18;;;19.80;55.00;;;;;;5026587;28;20057;-37
2021/03/16 01:15:51;;;;;;;4.72;4.00;;;19.80;54.90;;;;;;5043792;28;20390;-37
2021/03/16 01:18:18;;;;;;;4.60;4.00;;;19.80;54.90;;;;;;5044258;28;20606;-38
2021/03/16 01:20:44;;;;;;;4.43;3.97;;;19.80;55.00;;;;;;5067293;28;20052;-38
2021/03/16 01:23:10;;;;;;;6.03;4.20;;;19.80;55.10;;;;;;5067143;28;20096;-37
2021/03/16 01:25:36;;;;;;;5.00;4.30;;;19.80;55.00;;;;;;5074349;28;20012;-38
2021/03/16 01:28:02;;;;;;;4.35;3.95;;;19.80;55.10;;;;;;5025824;28;20028;-37
2021/03/16 01:30:29;;;;;;;4.60;4.07;;;19.80;55.00;;;;;;5043746;28;20030;-37
2021/03/16 01:32:55;;;;;;;4.30;3.90;;;19.80;54.90;;;;;;5060587;28;20037;-37
2021/03/16 01:35:22;;;;;;;4.40;3.83;;;19.80;55.00;;;;;;5058408;28;20035;-37
2021/03/16 01:38:06;;;;;;;5.07;4.53;;;19.80;55.00;;;;;;5025815;28;20030;-37
2021/03/16 01:40:34;;;;;;;5.43;4.22;;;19.80;55.00;;;;;;5043721;28;20037;-38
2021/03/16 01:43:11;;;;;;;4.43;4.00;;;19.80;55.00;;;;;;5043442;28;20406;-36
2021/03/16 01:45:38;;;;;;;4.55;4.00;;;19.80;55.00;;;;;;5043671;28;20029;-37
2021/03/16 01:48:05;;;;;;;4.60;3.70;;;19.80;55.00;;;;;;5043010;28;20040;-37
2021/03/16 01:50:32;;;;;;;4.93;4.13;;;19.80;55.00;;;;;;5025675;28;20049;-37
2021/03/16 01:52:58;;;;;;;5.50;4.20;;;19.80;55.00;;;;;;5025663;28;20029;-38
2021/03/16 01:55:24;;;;;;;4.65;3.83;;;19.80;55.00;;;;;;5060230;28;20100;-38
2021/03/16 01:57:50;;;;;;;5.10;3.90;;;19.80;55.10;;;;;;5046878;28;20059;-38
2021/03/16 02:00:17;;;;;;;4.95;4.25;;;19.80;55.00;;;;;;5028748;28;20055;-37
2021/03/16 02:02:43;;;;;;;4.45;3.90;;;19.80;55.10;;;;;;5063137;28;20466;-37
2021/03/16 02:05:10;;;;;;;4.78;4.18;;;19.70;55.10;;;;;;5063305;28;20033;-37
2021/03/16 02:07:52;;;;;;;4.90;3.88;;;19.70;55.00;;;;;;5045154;28;20697;-37
2021/03/16 02:10:55;;;;;;;4.97;4.47;;;19.70;55.00;;;;;;5045237;28;20107;-37
2021/03/16 02:13:27;;;;;;;5.05;3.97;;;19.70;54.90;;;;;;5047921;28;20037;-37
2021/03/16 02:15:58;;;;;;;4.53;3.92;;;19.70;55.00;;;;;;5045393;28;20047;-37
2021/03/16 02:18:25;;;;;;;4.50;3.90;;;19.70;54.90;;;;;;5062760;28;20025;-37
2021/03/16 02:20:58;;;;;;;;;;;19.70;54.80;;;;;;5029098;28;20084;-37
2021/03/16 02:23:48;;;;;;;5.10;3.90;;;19.70;54.90;;;;;;5062991;28;19963;-38
2021/03/16 02:26:14;;;;;;;5.70;4.07;;;19.70;55.00;;;;;;5027275;28;20067;-37
2021/03/16 02:29:00;;;;;;;4.57;4.00;;;19.70;55.10;;;;;;5062427;28;20032;-37
2021/03/16 02:31:27;;;;;;;4.78;4.00;;;19.70;55.10;;;;;;5010967;28;20037;-37
2021/03/16 02:33:53;;;;;;;5.17;3.93;;;19.70;55.10;;;;;;5064961;28;20036;-37
2021/03/16 02:36:19;;;;;;;5.03;4.20;;;19.70;55.10;;;;;;5049162;28;20040;-37
2021/03/16 02:38:46;;;;;;;5.72;4.00;;;19.70;55.10;;;;;;5048258;28;20386;-37
2021/03/16 02:41:14;;;;;;;4.85;3.90;;;19.70;55.20;;;;;;5024975;28;20044;-37
2021/03/16 02:43:41;;;;;;;4.28;3.50;;;19.60;55.10;;;;;;5024749;28;20037;-37
2021/03/16 02:46:07;;;;;;;4.85;4.30;;;19.70;55.00;;;;;;5024951;28;20047;-37
2021/03/16 02:48:34;;;;;;;5.30;3.95;;;19.70;55.10;;;;;;5042534;28;20029;-37
2021/03/16 02:51:00;;;;;;;5.90;4.20;;;19.60;55.10;;;;;;5025094;28;20445;-37
2021/03/16 02:53:26;;;;;;;4.18;3.78;;;19.60;55.10;;;;;;5024868;28;20037;-37
2021/03/16 02:55:54;;;;;;;4.47;3.60;;;19.60;55.10;;;;;;5024701;28;20823;-37
2021/03/16 02:58:20;;;;;;;4.68;3.88;;;19.60;55.00;;;;;;5008678;28;20093;-38
2021/03/16 03:00:47;;;;;;;4.75;3.80;;;19.60;55.00;;;;;;5028992;28;20025;-37
2021/03/16 03:03:13;;;;;;;4.55;3.80;;;19.60;55.10;;;;;;5028753;28;20588;-37
2021/03/16 03:05:39;;;;;;;4.25;3.83;;;19.60;55.10;;;;;;5012551;28;20033;-37
2021/03/16 03:08:05;;;;;;;4.07;3.55;;;19.60;55.10;;;;;;5028526;28;20072;-37
2021/03/16 03:10:31;;;;;;;4.93;3.90;;;19.60;55.00;;;;;;5028346;28;20021;-37
2021/03/16 03:12:58;;;;;;;4.03;3.53;;;19.60;55.10;;;;;;5028713;28;20056;-37
2021/03/16 03:15:24;;;;;;;4.30;3.90;;;19.60;55.10;;;;;;5064097;28;20055;-37
2021/03/16 03:17:50;;;;;;;4.70;3.67;;;19.60;55.10;;;;;;5086147;28;20028;-37
2021/03/16 03:20:16;;;;;;;4.47;3.55;;;19.60;55.10;;;;;;5086396;28;20016;-37
2021/03/16 03:22:44;;;;;;;3.97;3.58;;;19.60;55.10;;;;;;5086271;28;20042;-37
2021/03/16 03:25:33;;;;;;;4.10;3.70;;;19.60;55.10;;;;;;5079596;28;20025;-37
2021/03/16 03:28:08;;;;;;;4.38;3.50;;;19.60;55.10;;;;;;5064338;28;20025;-37
2021/03/16 03:30:34;;;;;;;4.13;3.70;;;19.60;55.20;;;;;;5065016;28;20099;-37
2021/03/16 03:33:04;;;;;;;4.47;3.38;;;19.60;55.20;;;;;;5064729;28;20017;-37
2021/03/16 03:35:32;;;;;;;4.30;3.42;;;19.60;55.20;;;;;;5038681;28;20021;-37
2021/03/16 03:37:58;;;;;;;4.82;3.63;;;19.60;55.20;;;;;;5041657;28;20044;-37
2021/03/16 03:40:26;;;;;;;4.85;3.58;;;19.60;55.20;;;;;;5048070;28;20032;-37
2021/03/16 03:42:55;;;;;;;4.95;3.78;;;19.50;55.20;;;;;;5066006;28;20059;-37
2021/03/16 03:45:21;;;;;;;4.43;3.40;;;19.60;55.20;;;;;;5066059;28;20417;-37
2021/03/16 03:47:47;;;;;;;4.00;3.58;;;19.50;55.10;;;;;;5047871;28;20029;-38
2021/03/16 03:50:14;;;;;;;4.00;3.47;;;19.50;55.10;;;;;;5031415;28;20013;-37
2021/03/16 03:52:40;;;;;;;5.25;3.67;;;19.50;55.20;;;;;;5031658;28;20052;-37
2021/03/16 03:55:07;;;;;;;4.22;3.38;;;19.50;55.10;;;;;;5041962;28;20013;-37
2021/03/16 03:57:33;;;;;;;5.15;3.83;;;19.50;55.10;;;;;;5043101;28;20032;-38
2021/03/16 03:59:59;;;;;;;3.92;3.40;;;19.50;55.10;;;;;;5067403;28;20023;-37
2021/03/16 04:02:25;;;;;;;3.78;3.38;;;19.50;55.10;;;;;;5050862;28;20052;-38
2021/03/16 04:04:51;;;;;;;3.70;3.40;;;19.50;55.20;;;;;;5067388;28;20032;-37
2021/03/16 04:07:17;;;;;;;5.05;3.78;;;19.50;55.20;;;;;;5047968;28;20059;-37
2021/03/16 04:09:44;;;;;;;4.90;3.33;;;19.50;55.20;;;;;;5050705;28;20036;-37
2021/03/16 04:12:10;;;;;;;5.53;3.63;;;19.50;55.20;;;;;;5085301;28;20091;-37
2021/03/16 04:14:36;;;;;;;4.35;3.60;;;19.50;55.20;;;;;;5067220;28;20028;-37
2021/03/16 04:17:03;;;;;;;4.05;3.65;;;19.50;55.20;;;;;;5050866;28;20072;-37
2021/03/16 04:19:29;;;;;;;3.75;3.22;;;19.50;55.10;;;;;;5067231;28;20034;-38
2021/03/16 04:21:55;;;;;;;4.70;3.22;;;19.50;55.20;;;;;;5085256;28;20043;-37
2021/03/16 04:24:22;;;;;;;4.03;3.63;;;19.50;55.30;;;;;;5050861;28;20032;-37
2021/03/16 04:26:48;;;;;;;3.72;3.30;;;19.50;55.30;;;;;;5065012;28;20044;-37
2021/03/16 04:29:14;;;;;;;4.20;3.60;;;19.40;55.20;;;;;;5064947;28;20163;-37
2021/03/16 04:31:40;;;;;;;3.95;3.50;;;19.40;55.20;;;;;;5058202;28;20084;-37
2021/03/16 04:34:06;;;;;;;4.30;3.47;;;19.40;55.20;;;;;;5046829;28;20025;-38
2021/03/16 04:36:33;;;;;;;5.63;3.50;;;19.40;55.30;;;;;;5054761;28;20081;-37
2021/03/16 04:38:59;;;;;;;5.22;3.58;;;19.40;55.20;;;;;;5027008;28;20022;-38
2021/03/16 04:41:25;;;;;;;4.20;3.33;;;19.40;55.20;;;;;;5045042;28;20398;-37
2021/03/16 04:43:51;;;;;;;4.00;3.25;;;19.40;55.20;;;;;;5044809;28;20044;-37
2021/03/16 04:46:17;;;;;;;4.18;3.42;;;19.40;55.20;;;;;;5044682;28;20032;-44
2021/03/16 04:48:43;;;;;;;3.88;3.33;;;19.40;55.30;;;;;;5044911;28;20440;-37
2021/03/16 04:51:10;;;;;;;4.47;3.53;;;19.40;55.30;;;;;;5044343;28;20060;-37
2021/03/16 04:53:36;;;;;;;4.25;3.55;;;19.40;55.30;;;;;;5044923;28;20029;-38
2021/03/16 04:56:02;;;;;;;5.70;3.53;;;19.40;55.30;;;;;;5044810;28;20033;-37
2021/03/16 04:58:28;;;;;;;3.90;3.47;;;19.40;55.40;;;;;;5026816;28;20025;-37
2021/03/16 05:00:54;;;;;;;4.82;3.28;;;19.40;55.40;;;;;;5044570;28;20033;-37
2021/03/16 05:03:20;;;;;;;4.88;3.35;;;19.40;55.40;;;;;;5026664;28;20044;-37
2021/03/16 05:05:47;;;;;;;4.30;3.50;;;19.40;55.80;;;;;;5044530;28;20025;-37
2021/03/16 05:08:13;;;;;;;5.35;3.33;;;19.40;55.40;;;;;;5044605;28;20033;-37
2021/03/16 05:10:39;;;;;;;4.40;3.42;;;19.40;55.50;;;;;;5044256;28;20079;-37
2021/03/16 05:13:07;;;;;;;4.88;3.40;;;19.40;55.60;;;;;;5044319;28;20053;-37
2021/03/16 05:15:33;;;;;;;4.70;3.42;;;19.40;55.70;;;;;;5044215;28;20029;-37
2021/03/16 05:17:59;;;;;;;4.85;3.50;;;19.40;55.70;;;;;;5044178;28;20033;-37
2021/03/16 05:20:25;;;;;;;5.10;3.75;;;19.40;55.80;;;;;;5044081;28;20033;-37
2021/03/16 05:22:51;;;;;;;5.97;3.50;;;19.30;55.80;;;;;;5065961;28;20092;-37
2021/03/16 05:25:19;;;;;;;4.65;3.10;;;19.40;55.80;;;;;;5073544;28;20505;-37
2021/03/16 05:27:46;;;;;;;5.47;3.63;;;19.30;55.80;;;;;;5066486;28;20438;-37
2021/03/16 05:30:13;;;;;;;4.40;3.28;;;19.30;55.80;;;;;;5063865;28;20111;-37
2021/03/16 05:32:39;;;;;;;4.63;3.45;;;19.30;55.80;;;;;;5078375;28;20028;-37
2021/03/16 05:35:06;;;;;;;3.70;3.22;;;19.30;55.80;;;;;;5073139;28;20028;-37
2021/03/16 05:37:32;;;;;;;5.53;3.63;;;19.30;55.80;;;;;;5044084;28;20025;-37
2021/03/16 05:39:58;;;;;;;5.22;3.42;;;19.30;55.80;;;;;;5043698;28;20068;-37
2021/03/16 05:42:25;;;;;;;5.07;3.25;;;19.30;55.80;;;;;;5043577;28;20035;-37
2021/03/16 05:44:51;;;;;;;5.82;3.10;;;19.30;55.80;;;;;;5026169;28;20025;-38
2021/03/16 05:47:17;;;;;;;3.85;3.10;;;19.30;55.80;;;;;;5026093;28;20434;-37
2021/03/16 05:49:43;;;;;;;4.60;3.57;;;19.30;55.80;;;;;;5009543;28;20026;-37
2021/03/16 05:52:13;;;;;;;3.40;2.75;;;19.30;55.80;;;;;;5026085;28;20549;-37
2021/03/16 05:54:39;;;;;;;5.15;3.35;;;19.30;55.80;;;;;;5043700;28;20029;-37
2021/03/16 05:57:08;;;;;;;3.63;3.00;;;19.30;55.90;;;;;;5043674;28;20033;-37
2021/03/16 05:59:36;;;;;;;5.65;3.38;;;19.30;55.90;;;;;;5027329;28;20052;-38
2021/03/16 06:02:02;;;;;;;4.55;3.22;;;19.30;55.90;;;;;;5062859;28;20711;-37
2021/03/16 06:04:28;;;;;;;4.50;3.00;;;19.30;55.90;;;;;;5063509;28;20040;-38
2021/03/16 06:06:58;;;;;;;4.28;2.88;;;19.30;56.00;;;;;;5063194;28;20047;-37
2021/03/16 06:09:24;;;;;;;5.32;3.40;;;19.20;56.00;;;;;;5063541;28;20059;-37
2021/03/16 06:11:50;;;;;;;3.90;3.20;;;19.20;56.00;;;;;;5063040;28;20053;-38
2021/03/16 06:14:16;;;;;;;4.15;3.00;;;19.20;56.10;;;;;;5063411;28;20087;-37
2021/03/16 06:16:42;;;;;;;4.30;3.10;;;19.20;56.10;;;;;;5063270;28;20025;-35
2021/03/16 06:19:09;;;;;;;6.10;3.38;;;19.20;56.20;;;;;;5045170;28;20036;-36
2021/03/16 06:21:35;;;;;;;4.22;3.03;;;19.20;56.20;;;;;;5062922;28;20420;-37
2021/03/16 06:24:01;;;;;;;5.97;3.38;;;19.20;56.30;;;;;;5045429;28;20123;-36
2021/03/16 06:26:33;;;;;;;4.90;3.25;;;19.20;56.30;;;;;;5055581;28;20025;-37
2021/03/16 06:29:13;;;;;;;4.57;3.15;;;19.20;56.50;;;;;;5063051;28;20024;-37
2021/03/16 06:31:39;;;;;;;5.13;2.90;;;19.20;56.40;;;;;;5069108;28;20020;-37
2021/03/16 06:34:05;;;;;;;5.78;3.53;;;19.20;56.40;;;;;;5083057;28;20029;-36
2021/03/16 06:36:32;;;;;;;4.38;3.15;;;19.20;56.40;;;;;;5065091;28;20080;-37
2021/03/16 06:38:58;;;;;;;4.38;3.15;;;19.20;56.40;;;;;;5053258;28;20088;-37
2021/03/16 06:41:25;;;;;;;4.95;3.28;;;19.20;56.30;;;;;;5054330;28;20082;-37
2021/03/16 06:43:55;;;;;;;4.53;2.93;;;19.20;56.30;;;;;;5062796;28;20039;-36
2021/03/16 06:46:28;;;;;;;3.85;3.13;;;19.20;56.20;;;;;;5062851;28;20048;-37
2021/03/16 06:48:54;;;;;;;4.03;2.85;;;19.20;56.10;;;;;;5062719;28;20036;-37
2021/03/16 06:51:25;;;;;;;4.95;2.85;;;19.10;56.20;;;;;;5044681;28;20040;-37
2021/03/16 06:53:51;;;;;;;3.58;2.60;;;19.20;56.30;;;;;;5045191;28;20021;-37
2021/03/16 06:56:27;;;;;;;4.20;2.63;;;19.10;56.30;;;;;;5036428;28;20029;-36
2021/03/16 06:58:53;;;;;;;4.72;3.00;;;19.10;56.40;;;;;;5062870;28;20052;-36
2021/03/16 07:01:20;;;;;;;5.32;2.97;;;19.10;56.40;;;;;;5062492;28;20036;-36
2021/03/16 07:03:47;;;;;;;3.92;3.00;;;19.10;56.40;;;;;;5062368;28;20032;-37
2021/03/16 07:06:18;;;;;;;4.32;2.85;;;19.10;56.40;;;;;;5062786;28;20032;-37
2021/03/16 07:08:45;;;;;;;3.55;2.78;;;19.10;56.50;;;;;;5045056;28;20077;-37
2021/03/16 07:11:15;;;;;;;4.60;2.75;;;19.10;56.50;;;;;;5062332;28;20036;-37
2021/03/16 07:13:42;;;;;;;4.68;2.92;;;19.10;56.50;;;;;;5062563;28;20037;-37
2021/03/16 07:16:09;;;;;;;3.92;3.13;;;19.10;56.50;;;;;;5062627;28;20021;-37
2021/03/16 07:18:43;;;;;;;4.18;2.97;;;19.10;56.60;;;;;;5029095;28;20037;-36
2021/03/16 07:21:26;;;;;;;4.10;2.83;;;19.10;56.60;;;;;;5042076;28;20048;-37
2021/03/16 07:24:04;;;;;;;4.65;2.88;;;19.10;56.60;;;;;;5027290;28;20045;-37
2021/03/16 07:26:30;;;;;;;5.40;3.22;;;19.10;56.60;;;;;;5070733;28;20068;-36
2021/03/16 07:28:57;;;;;;;4.53;3.00;;;19.00;56.50;;;;;;5044571;28;20601;-36
2021/03/16 07:31:23;;;;;;;5.22;3.13;;;19.00;56.50;;;;;;5057915;28;20030;-36
2021/03/16 07:33:49;;;;;;;4.22;3.00;;;19.00;56.60;;;;;;5024637;28;20018;-36
2021/03/16 07:36:16;;;;;;;4.78;3.20;;;19.00;56.50;;;;;;5049472;28;20061;-36
2021/03/16 07:38:42;;;;;;;4.47;2.95;;;19.00;56.50;;;;;;5060830;28;20304;-36
2021/03/16 07:41:08;;;;;;;3.55;2.30;;;19.00;56.50;;;;;;5028080;28;20029;-36
2021/03/16 07:43:39;;;;;;;4.75;2.92;;;19.00;56.60;;;;;;5062059;28;20047;-36
2021/03/16 07:46:17;;;;;;;5.88;2.83;;;19.00;56.60;;;;;;5065329;28;20040;-36
2021/03/16 07:48:45;;;;;;;4.38;2.80;;;19.00;56.60;;;;;;5066050;28;20100;-37
2021/03/16 07:51:18;;;;;;;5.22;3.05;;;19.00;56.70;;;;;;5066104;28;20040;-37
2021/03/16 07:54:01;;;;;;;4.45;2.53;;;19.00;56.70;;;;;;5065991;28;20100;-36
2021/03/16 07:56:32;;;;;;;4.75;2.90;;;19.00;56.70;;;;;;5076319;28;20079;-36
2021/03/16 07:58:58;;;;;;;3.55;2.35;;;19.00;56.70;;;;;;5065856;28;20029;-36
2021/03/16 08:01:24;;;;;;;3.25;2.47;;;19.00;56.80;;;;;;5052364;28;20060;-37
2021/03/16 08:03:51;;;;;;;4.40;2.92;;;19.00;56.90;;;;;;5085445;28;20037;-36
2021/03/16 08:06:21;;;;;;;4.27;2.70;;;19.00;56.80;;;;;;5064985;28;20047;-37
2021/03/16 08:08:49;;;;;;;3.95;2.70;;;19.00;56.90;;;;;;5065895;28;20140;-37
2021/03/16 08:11:15;;;;;;;4.65;2.80;;;18.90;56.90;;;;;;5065314;28;20033;-37
2021/03/16 08:13:52;;;;;;;4.95;2.95;;;18.90;56.80;;;;;;5065291;28;20037;-37
2021/03/16 08:16:18;;;;;;;4.10;2.67;;;18.90;56.80;;;;;;5049327;28;20021;-36
2021/03/16 08:18:44;;;;;;;3.95;2.72;;;18.90;56.80;;;;;;5065457;28;20100;-36
2021/03/16 08:21:14;;;;;;;4.15;2.42;;;18.90;56.80;;;;;;5065504;28;20021;-36
2021/03/16 08:23:43;;;;;;;4.60;2.70;;;18.90;56.80;;;;;;5065202;28;20439;-37
2021/03/16 08:26:12;;;;;;;4.22;2.47;;;18.90;56.90;;;;;;5065350;28;20025;-37
2021/03/16 08:28:46;;;;;;;4.85;2.60;;;18.90;56.90;;;;;;5031322;28;20025;-38
2021/03/16 08:31:13;;;;;;;4.43;2.72;;;18.90;56.90;;;;;;5062552;28;20026;-36
2021/03/16 08:33:39;;;;;;;5.40;2.78;;;18.90;57.00;;;;;;5045169;28;20025;-37
2021/03/16 08:36:05;;;;;;;3.80;2.28;;;18.90;57.10;;;;;;5027481;28;20089;-36
2021/03/16 08:38:32;;;;;;;3.60;2.35;;;18.90;57.20;;;;;;5063639;28;20020;-36
2021/03/16 08:41:09;;;;;;;5.28;2.78;;;18.90;57.30;;;;;;5059284;28;20028;-37
2021/03/16 08:43:36;;;;;;;4.80;2.77;;;18.90;57.40;;;;;;5059404;28;20059;-37
2021/03/16 08:46:02;;;;;;;4.70;2.80;;;18.90;57.40;;;;;;5065113;28;20013;-36
2021/03/16 08:48:29;;;;;;;4.80;2.60;;;18.90;57.50;;;;;;5064902;28;20029;-36
2021/03/16 08:50:56;;;;;;;3.80;2.60;;;18.80;57.40;;;;;;5047229;28;20025;-37
2021/03/16 08:53:22;;;;;;;3.63;2.65;;;18.90;57.50;;;;;;5064809;28;20120;-37
2021/03/16 08:55:52;;;;;;;4.72;2.65;;;18.90;57.80;;;;;;5074634;28;20025;-36
2021/03/16 08:58:18;;;;;;;5.38;2.90;;;18.80;57.70;;;;;;5064380;28;20037;-37
2021/03/16 09:00:45;;;;;;;3.50;2.65;;;18.80;57.60;;;;;;5046805;28;20029;-36
2021/03/16 09:03:11;;;;;;;5.40;3.00;;;18.80;57.50;;;;;;5045329;28;20065;-37
2021/03/16 09:05:37;;;;;;;3.83;2.63;;;18.80;57.60;;;;;;5044721;28;20267;-36
2021/03/16 09:08:04;;;;;;;3.85;2.60;;;18.80;57.50;;;;;;5026911;28;20029;-36
2021/03/16 09:10:31;;;;;;;4.50;2.65;;;18.80;57.60;;;;;;5044722;28;20036;-37
2021/03/16 09:12:57;;;;;;;4.47;2.35;;;18.80;57.50;;;;;;5044147;28;20049;-37
2021/03/16 09:15:31;;;;;;;4.80;2.55;;;18.80;57.50;;;;;;5054168;28;20064;-36
2021/03/16 09:17:58;;;;;;;5.32;3.25;;;18.80;57.60;;;;;;5069654;28;20037;-36
2021/03/16 09:20:32;;;;;;;4.20;2.80;;;18.80;57.60;;;;;;5064450;28;20544;-36
2021/03/16 09:23:07;;;;;;;4.75;3.20;;;18.80;57.80;;;;;;5046334;28;20056;-37
2021/03/16 09:25:35;;;;;;;3.92;2.65;;;18.70;57.70;;;;;;5056125;28;20025;-36
2021/03/16 09:28:02;;;;;;;3.17;2.65;;;18.70;57.80;;;;;;5046663;28;20021;-36
2021/03/16 09:30:30;;;;;;;4.13;2.60;;;18.70;57.70;;;;;;5064326;28;20029;-37
2021/03/16 09:32:56;;;;;;;4.20;3.03;;;18.70;57.90;;;;;;5047065;28;20029;-37
2021/03/16 09:35:23;;;;;;;4.15;2.35;;;18.70;57.90;;;;;;5033616;28;20029;-37
2021/03/16 09:37:50;;;;;;;5.18;2.67;;;18.70;58.10;;;;;;5040259;28;20075;-36
2021/03/16 09:40:16;;;;;;;3.95;2.88;;;18.70;57.90;;;;;;5064123;28;20025;-37
2021/03/16 09:42:47;;;;;;;3.53;2.60;;;18.70;58.00;;;;;;5064026;28;20033;-36
2021/03/16 09:45:19;;;;;;;3.80;2.70;;;18.70;58.00;;;;;;5063679;28;20274;-36
2021/03/16 09:47:46;;;;;;;4.05;2.72;;;18.70;58.00;;;;;;5063842;28;20057;-37
2021/03/16 09:50:22;;;;;;;;;;;18.70;57.90;;;;;;5062699;28;20035;-37
2021/03/16 09:52:59;;;;;;;4.63;2.88;;;18.60;58.30;;;;;;5062804;28;19931;-36
2021/03/16 09:55:25;;;;;;;3.97;2.53;;;18.60;58.00;;;;;;5072170;28;20075;-37
2021/03/16 09:57:52;;;;;;;2.65;2.35;;;18.60;57.80;;;;;;5065381;28;20037;-36
2021/03/16 10:00:19;;;;;;;3.72;2.53;;;18.60;57.90;;;;;;5063686;28;20052;-37
2021/03/16 10:02:45;;;;;;;3.55;2.50;;;18.60;57.90;;;;;;5047933;28;20462;-36
2021/03/16 10:05:12;;;;;;;4.15;2.70;;;18.60;57.90;;;;;;5043401;28;20025;-37
2021/03/16 10:07:38;;;;;;;;;;;18.50;58.00;;;;;;5043819;28;20033;-37
2021/03/16 10:10:15;;;;;;;5.00;2.50;;;18.50;57.90;;;;;;5048333;28;19905;-37
2021/03/16 10:12:57;;;;;;;3.58;2.55;;;18.50;58.00;;;;;;5063364;28;20600;-36
2021/03/16 10:15:31;;;;;;;5.22;2.70;;;18.50;57.90;;;;;;5063036;28;20047;-35
2021/03/16 10:17:58;;;;;;;3.42;2.33;;;18.50;58.10;;;;;;5063384;28;20024;-36
2021/03/16 10:20:31;;;;;;;;;;;18.50;57.90;;;;;;5063742;28;20032;-36
2021/03/16 10:23:03;;;;;;;3.40;2.47;;;18.40;58.10;;;;;;5063318;28;19928;-36
2021/03/16 10:25:30;;;;;;;2.88;2.20;;;18.40;58.10;;;;;;5063050;28;20078;-36
2021/03/16 10:28:04;;;;;;;4.03;2.38;;;18.50;58.30;;;;;;5046136;28;20033;-37
2021/03/16 10:30:40;;;;;;;3.83;2.60;;;18.40;58.20;;;;;;5063258;28;20536;-36
2021/03/16 10:33:07;;;;;;;3.88;2.70;;;18.40;58.10;;;;;;5044465;28;20022;-36
2021/03/16 10:35:34;;;;;;;3.63;2.58;;;18.40;58.20;;;;;;5043117;28;20029;-36
2021/03/16 10:38:02;;;;;;;4.13;2.65;;;18.40;58.00;;;;;;5043237;28;20093;-36
2021/03/16 10:40:29;;;;;;;2.85;2.45;;;18.40;58.20;;;;;;5046055;28;20036;-36
2021/03/16 10:42:55;;;;;;;4.75;2.75;;;18.40;58.20;;;;;;5055668;28;20041;-36
2021/03/16 10:45:21;;;;;;;3.55;2.42;;;18.30;58.10;;;;;;5043003;28;20021;-37
2021/03/16 10:47:48;;;;;;;2.92;1.70;;;18.40;58.20;;;;;;5043048;28;20037;-37
2021/03/16 10:50:14;;;;;;;4.10;2.38;;;18.30;58.00;;;;;;5025740;28;20516;-37
2021/03/16 10:52:40;;;;;;;2.90;2.28;;;18.30;58.10;;;;;;5042648;28;20028;-36
2021/03/16 10:55:07;;;;;;;3.95;2.78;;;18.30;58.20;;;;;;5055443;28;20027;-37
2021/03/16 10:57:33;;;;;;;3.27;2.23;;;18.30;58.20;;;;;;5067116;28;20040;-36
2021/03/16 11:00:01;;;;;;;4.50;2.70;;;18.20;58.10;;;;;;5062974;28;20084;-36
2021/03/16 11:02:27;;;;;;;2.65;2.20;;;18.20;58.30;;;;;;5062539;28;20033;-37
2021/03/16 11:04:53;;;;;;;2.97;2.60;;;18.20;58.10;;;;;;5062879;28;20029;-36
2021/03/16 11:07:19;;;;;;;3.17;2.25;;;18.20;58.10;;;;;;5062793;28;20096;-36
2021/03/16 11:09:46;;;;;;;3.15;2.40;;;18.20;58.20;;;;;;5062254;28;20033;-36
2021/03/16 11:12:12;;;;;;;4.40;2.37;;;18.20;58.20;;;;;;5080215;28;20052;-36
2021/03/16 11:14:39;;;;;;;3.33;2.40;;;18.20;58.20;;;;;;5082906;28;20025;-36
2021/03/16 11:17:05;;;;;;;4.40;2.55;;;18.20;58.30;;;;;;5083133;28;20028;-36
2021/03/16 11:19:31;;;;;;;3.88;2.58;;;18.10;58.30;;;;;;5083194;28;20032;-38
2021/03/16 11:21:57;;;;;;;3.03;2.15;;;18.10;58.20;;;;;;5086127;28;20094;-37
2021/03/16 11:24:23;;;;;;;3.05;2.30;;;18.20;58.20;;;;;;5050801;28;20041;-36
2021/03/16 11:26:49;;;;;;;3.15;2.40;;;18.10;58.30;;;;;;5076762;28;20017;-37
2021/03/16 11:29:15;;;;;;;2.85;2.47;;;18.10;58.20;;;;;;5048719;28;20056;-36
2021/03/16 11:31:42;;;;;;;3.33;2.35;;;18.10;58.20;;;;;;5066157;28;20020;-36
2021/03/16 11:34:08;;;;;;;3.55;2.70;;;18.10;58.30;;;;;;5048585;28;20111;-36
2021/03/16 11:36:34;;;;;;;3.95;2.55;;;18.10;58.20;;;;;;5064764;28;20029;-36
2021/03/16 11:39:00;;;;;;;2.90;2.17;;;18.10;58.70;;;;;;5046558;28;20029;-36
2021/03/16 11:41:26;;;;;;;2.85;2.45;;;18.10;58.10;;;;;;5046553;28;20152;-36
2021/03/16 11:43:53;;;;;;;3.63;2.75;;;18.00;58.20;;;;;;5045871;28;20049;-36
2021/03/16 11:46:19;;;;;;;4.30;2.83;;;18.00;58.20;;;;;;5046507;28;20021;-37
2021/03/16 11:48:45;;;;;;;4.70;2.53;;;18.00;58.30;;;;;;5046405;28;20092;-36
2021/03/16 11:51:11;;;;;;;3.45;2.83;;;18.00;58.30;;;;;;5046169;28;20654;-37
2021/03/16 11:53:37;;;;;;;3.95;2.47;;;18.00;58.40;;;;;;5045843;28;20033;-36
2021/03/16 11:56:04;;;;;;;3.63;2.50;;;18.00;58.40;;;;;;5070560;28;20025;-36
2021/03/16 11:58:32;;;;;;;2.37;1.80;;;17.90;58.50;;;;;;5066113;28;20028;-36
2021/03/16 12:00:58;;;;;;;3.58;2.47;;;17.90;58.40;;;;;;5066055;28;20029;-36
2021/03/16 12:03:24;;;;;;;3.95;2.40;;;17.90;58.40;;;;;;5065723;28;20558;-37
2021/03/16 12:05:50;;;;;;;3.55;2.50;;;17.90;58.40;;;;;;5048057;28;20033;-36
2021/03/16 12:08:17;;;;;;;3.72;2.13;;;17.80;58.50;;;;;;5047715;28;20021;-36
2021/03/16 12:10:43;;;;;;;2.90;2.60;;;17.80;58.40;;;;;;5065899;28;20029;-36
2021/03/16 12:13:09;;;;;;;4.60;2.80;;;17.90;58.50;;;;;;5065773;28;20072;-36
2021/03/16 12:15:35;;;;;;;3.80;2.70;;;17.90;58.50;;;;;;5065517;28;20040;-36
2021/03/16 12:18:02;;;;;;;4.10;2.55;;;17.80;58.50;;;;;;5065548;28;20025;-36
2021/03/16 12:20:28;;;;;;;3.83;2.63;;;17.90;58.50;;;;;;5065460;28;20056;-36
2021/03/16 12:22:56;;;;;;;3.92;2.53;;;17.80;58.50;;;;;;5065702;28;20036;-36
2021/03/16 12:25:22;;;;;;;4.40;3.10;;;17.80;58.40;;;;;;5065582;28;20090;-36
2021/03/16 12:27:48;;;;;;;4.10;2.55;;;17.80;58.50;;;;;;5047710;28;20028;-36
2021/03/16 12:30:15;;;;;;;3.25;2.45;;;17.80;58.60;;;;;;5045307;28;20034;-36
2021/03/16 12:32:42;;;;;;;3.20;2.60;;;17.70;58.50;;;;;;5075738;28;20036;-36
2021/03/16 12:35:09;;;;;;;3.55;2.45;;;17.70;58.60;;;;;;5070429;28;20325;-36
2021/03/16 12:37:35;;;;;;;3.88;2.45;;;17.70;58.50;;;;;;5035912;28;20044;-36
2021/03/16 12:40:04;;;;;;;4.25;3.15;;;17.70;58.50;;;;;;5045569;28;20026;-36
2021/03/16 12:42:33;;;;;;;3.00;2.38;;;17.70;58.60;;;;;;5045406;28;20034;-36
2021/03/16 12:44:59;;;;;;;4.05;2.58;;;17.70;58.60;;;;;;5045060;28;20061;-36
2021/03/16 12:47:26;;;;;;;4.38;3.33;;;17.70;58.70;;;;;;5045247;28;20021;-36
2021/03/16 12:49:52;;;;;;;3.83;2.67;;;17.60;58.60;;;;;;5045114;28;20025;-36